createdAt,value
2023-02-23T00:01:29.142Z,35.87
2023-02-23T00:03:57.695Z,35.87
2023-02-23T00:06:26.679Z,36.90
2023-02-23T00:08:53.704Z,41.33
2023-02-23T00:11:21.417Z,40.70
2023-02-23T00:13:52.550Z,36.43
2023-02-23T00:16:21.529Z,36.57
2023-02-23T00:18:51.080Z,37.47
2023-02-23T00:21:25.075Z,40.17
2023-02-23T00:23:59.880Z,38.70
2023-02-23T00:26:31.072Z,38.43
2023-02-23T00:28:58.438Z,36.47
2023-02-23T00:31:27.122Z,33.73
2023-02-23T00:33:54.897Z,33.30
2023-02-23T00:36:24.331Z,35.87
2023-02-23T00:38:56.831Z,32.47
2023-02-23T00:41:28.467Z,34.07
2023-02-23T00:43:59.318Z,34.93
2023-02-23T00:46:29.869Z,38.13
2023-02-23T00:48:58.735Z,33.47
2023-02-23T00:51:30.713Z,32.10
2023-02-23T00:53:58.763Z,32.77
2023-02-23T00:56:26.184Z,33.77
2023-02-23T00:58:52.874Z,31.97
2023-02-23T01:01:19.977Z,30.67
2023-02-23T01:03:46.767Z,31.80
2023-02-23T01:06:15.790Z,30.20
2023-02-23T01:08:44.852Z,30.50
2023-02-23T01:11:14.455Z,27.20
2023-02-23T01:13:43.561Z,30.50
2023-02-23T01:16:16.248Z,30.77
2023-02-23T01:18:47.096Z,28.73
2023-02-23T01:21:17.084Z,29.47
2023-02-23T01:23:43.941Z,31.43
2023-02-23T01:26:19.189Z,30.50
2023-02-23T01:28:53.849Z,31.80
2023-02-23T01:31:22.127Z,32.23
2023-02-23T01:33:54.084Z,33.87
2023-02-23T01:36:20.887Z,34.67
2023-02-23T01:38:49.088Z,35.23
2023-02-23T01:41:16.648Z,31.43
2023-02-23T01:44:07.467Z,32.97
2023-02-23T01:46:41.211Z,30.97
2023-02-23T01:49:16.046Z,31.90
2023-02-23T01:51:51.510Z,32.43
2023-02-23T01:54:28.896Z,34.27
2023-02-23T01:56:58.638Z,28.93
2023-02-23T01:59:30.783Z,32.80
2023-02-23T02:01:57.464Z,31.97
2023-02-23T02:04:25.879Z,29.10
2023-02-23T02:06:53.933Z,28.73
2023-02-23T02:09:25.637Z,35.73
2023-02-23T02:11:54.199Z,25.27
2023-02-23T02:14:29.431Z,27.20
2023-02-23T02:17:10.148Z,27.23
2023-02-23T02:19:55.347Z,32.63
2023-02-23T02:22:51.659Z,27.90
2023-02-23T02:25:48.208Z,28.63
2023-02-23T02:28:18.057Z,30.03
2023-02-23T02:31:26.445Z,28.70
2023-02-23T02:34:18.204Z,29.07
2023-02-23T02:37:17.910Z,26.53
2023-02-23T02:40:14.426Z,26.13
2023-02-23T02:42:43.836Z,28.53
2023-02-23T02:45:44.700Z,26.60
2023-02-23T02:48:22.003Z,27.17
2023-02-23T02:50:56.441Z,28.40
2023-02-23T02:53:29.686Z,25.57
2023-02-23T02:56:00.387Z,28.53
2023-02-23T02:58:27.841Z,27.03
2023-02-23T03:01:13.033Z,25.00
2023-02-23T03:04:01.587Z,27.03
2023-02-23T03:07:04.234Z,26.37
2023-02-23T03:10:00.466Z,29.00
2023-02-23T03:13:12.933Z,26.90
2023-02-23T03:16:07.750Z,24.53
2023-02-23T03:19:11.514Z,27.47
2023-02-23T03:22:15.398Z,26.10
2023-02-23T03:25:23.501Z,28.40
2023-02-23T03:28:18.539Z,25.70
2023-02-23T03:31:34.585Z,26.43
2023-02-23T03:34:44.323Z,27.90
2023-02-23T03:37:37.202Z,25.03
2023-02-23T03:40:32.898Z,26.00
2023-02-23T03:43:22.522Z,26.17
2023-02-23T03:46:08.857Z,28.00
2023-02-23T03:48:56.007Z,28.63
2023-02-23T03:51:44.535Z,25.33
2023-02-23T03:54:35.380Z,26.47
2023-02-23T03:57:25.707Z,22.73
2023-02-23T04:00:21.601Z,23.60
2023-02-23T04:03:11.648Z,25.37
2023-02-23T04:06:00.273Z,26.10
2023-02-23T04:08:51.837Z,27.37
2023-02-23T04:11:45.108Z,28.03
2023-02-23T04:14:18.993Z,29.77
2023-02-23T04:16:46.204Z,30.57
2023-02-23T04:19:12.824Z,29.30
2023-02-23T04:21:39.344Z,30.10
2023-02-23T04:24:05.874Z,25.80
2023-02-23T04:26:32.363Z,26.67
2023-02-23T04:28:58.774Z,26.83
2023-02-23T04:31:26.092Z,25.63
2023-02-23T04:33:52.761Z,22.93
2023-02-23T04:36:19.400Z,24.93
2023-02-23T04:38:45.939Z,28.77
2023-02-23T04:41:12.442Z,28.17
2023-02-23T04:43:38.902Z,25.83
2023-02-23T04:46:05.489Z,26.00
2023-02-23T04:48:32.097Z,25.03
2023-02-23T04:50:58.941Z,25.10
2023-02-23T04:53:27.034Z,27.00
2023-02-23T04:55:53.513Z,27.50
2023-02-23T04:58:20.048Z,26.90
2023-02-23T05:00:46.718Z,30.17
2023-02-23T05:03:13.199Z,33.47
2023-02-23T05:05:39.730Z,33.20
2023-02-23T05:08:06.256Z,35.53
2023-02-23T05:10:32.757Z,38.07
2023-02-23T05:12:59.281Z,33.53
2023-02-23T05:15:25.715Z,37.10
2023-02-23T05:17:52.164Z,38.10
2023-02-23T05:20:18.708Z,36.13
2023-02-23T05:22:45.219Z,36.70
2023-02-23T05:25:12.009Z,36.97
2023-02-23T05:27:39.068Z,40.93
2023-02-23T05:30:07.854Z,42.57
2023-02-23T05:32:34.655Z,40.30
2023-02-23T05:35:02.445Z,41.17
2023-02-23T05:37:28.920Z,42.03
2023-02-23T05:39:55.384Z,48.07
2023-02-23T05:42:21.821Z,43.80
2023-02-23T05:44:48.515Z,43.10
2023-02-23T05:47:14.991Z,44.33
2023-02-23T05:49:41.517Z,46.10
2023-02-23T05:52:08.406Z,44.50
2023-02-23T05:54:34.857Z,40.97
2023-02-23T05:57:01.898Z,45.70
2023-02-23T05:59:28.822Z,44.70
2023-02-23T06:01:55.383Z,44.80
2023-02-23T06:04:23.249Z,46.33
2023-02-23T06:06:49.915Z,46.67
2023-02-23T06:09:16.378Z,54.70
2023-02-23T06:11:42.861Z,50.70
2023-02-23T06:14:09.346Z,49.23
2023-02-23T06:16:35.878Z,46.70
2023-02-23T06:19:02.505Z,46.57
2023-02-23T06:21:29.145Z,47.73
2023-02-23T06:23:55.928Z,46.43
2023-02-23T06:26:22.377Z,46.17
2023-02-23T06:28:48.902Z,50.37
2023-02-23T06:31:15.576Z,46.57
2023-02-23T06:33:42.072Z,46.13
2023-02-23T06:36:08.624Z,44.63
2023-02-23T06:38:35.054Z,46.23
2023-02-23T06:41:07.220Z,43.87
2023-02-23T06:43:33.684Z,41.23
2023-02-23T06:46:00.124Z,43.50
2023-02-23T06:48:27.166Z,48.10
2023-02-23T06:50:53.652Z,45.00
2023-02-23T06:53:20.314Z,46.37
2023-02-23T06:55:46.744Z,46.50
2023-02-23T06:58:13.208Z,48.33
2023-02-23T07:00:42.889Z,47.97
2023-02-23T07:03:11.210Z,45.77
2023-02-23T07:05:37.766Z,45.83
2023-02-23T07:08:04.644Z,42.97
2023-02-23T07:10:31.095Z,47.50
2023-02-23T07:12:59.423Z,45.03
2023-02-23T07:15:25.901Z,44.07
2023-02-23T07:17:52.825Z,48.03
2023-02-23T07:20:19.734Z,45.47
2023-02-23T07:22:46.190Z,40.47
2023-02-23T07:25:12.620Z,47.73
2023-02-23T07:27:42.121Z,45.43
2023-02-23T07:30:09.294Z,40.90
2023-02-23T07:32:35.950Z,42.60
2023-02-23T07:35:03.930Z,43.60
2023-02-23T07:37:30.376Z,42.53
2023-02-23T07:39:56.894Z,43.50
2023-02-23T07:42:23.697Z,41.27
2023-02-23T07:44:50.196Z,37.70
2023-02-23T07:47:16.677Z,34.37
2023-02-23T07:49:43.563Z,36.27
2023-02-23T07:52:10.104Z,35.70
2023-02-23T07:54:36.559Z,32.17
2023-02-23T07:57:03.081Z,33.10
2023-02-23T07:59:29.627Z,33.53
2023-02-23T08:01:56.122Z,40.67
2023-02-23T08:04:22.611Z,34.73
2023-02-23T08:06:49.053Z,32.37
2023-02-23T08:09:15.524Z,37.97
2023-02-23T08:11:41.968Z,33.73
2023-02-23T08:14:10.466Z,35.10
2023-02-23T08:16:36.965Z,36.77
2023-02-23T08:19:03.496Z,39.53
2023-02-23T08:21:30.585Z,39.97
2023-02-23T08:23:58.831Z,41.67
2023-02-23T08:26:26.208Z,42.53
2023-02-23T08:28:54.045Z,39.73
2023-02-23T08:31:24.188Z,37.60
2023-02-23T08:33:51.489Z,39.63
2023-02-23T08:36:18.682Z,38.37
2023-02-23T08:38:45.159Z,38.23
2023-02-23T08:41:11.691Z,35.63
2023-02-23T08:43:39.248Z,33.33
2023-02-23T08:46:07.246Z,34.20
2023-02-23T08:48:34.141Z,36.80
2023-02-23T08:51:00.895Z,35.50
2023-02-23T08:53:29.631Z,38.23
2023-02-23T08:56:00.877Z,40.13
2023-02-23T08:58:28.657Z,41.40
2023-02-23T09:00:55.313Z,39.17
2023-02-23T09:03:23.113Z,35.10
2023-02-23T09:05:50.084Z,34.40
2023-02-23T09:08:16.636Z,35.47
2023-02-23T09:10:45.978Z,32.60
2023-02-23T09:13:12.602Z,35.40
2023-02-23T09:15:40.316Z,34.37
2023-02-23T09:18:08.517Z,33.00
2023-02-23T09:20:35.028Z,32.53
2023-02-23T09:23:01.518Z,36.30
2023-02-23T09:25:29.282Z,33.27
2023-02-23T09:27:59.852Z,35.17
2023-02-23T09:30:27.865Z,33.53
2023-02-23T09:32:55.737Z,36.70
2023-02-23T09:35:24.064Z,41.40
2023-02-23T09:37:53.088Z,40.30
2023-02-23T09:40:24.040Z,38.80
2023-02-23T09:43:06.037Z,34.47
2023-02-23T09:45:42.359Z,38.00
2023-02-23T09:48:24.965Z,33.30
2023-02-23T09:50:54.266Z,31.03
2023-02-23T09:53:48.399Z,34.03
2023-02-23T09:56:35.650Z,34.97
2023-02-23T09:59:05.367Z,37.73
2023-02-23T10:01:51.949Z,41.70
2023-02-23T10:04:24.696Z,32.23
2023-02-23T10:07:14.154Z,34.27
2023-02-23T10:09:59.208Z,31.03
2023-02-23T10:12:50.612Z,26.37
2023-02-23T10:15:25.171Z,22.17
2023-02-23T10:18:14.858Z,27.60
2023-02-23T10:20:50.924Z,27.33
2023-02-23T10:23:26.631Z,34.50
2023-02-23T10:25:57.216Z,26.93
2023-02-23T10:28:23.752Z,27.33
2023-02-23T10:30:52.760Z,27.50
2023-02-23T10:33:38.745Z,25.10
2023-02-23T10:36:19.686Z,31.80
2023-02-23T10:38:47.095Z,30.40
2023-02-23T10:41:16.277Z,29.80
2023-02-23T10:43:42.804Z,27.30
2023-02-23T10:46:19.748Z,25.67
2023-02-23T10:48:47.727Z,31.83
2023-02-23T10:51:26.323Z,32.87
2023-02-23T10:53:53.699Z,32.03
2023-02-23T10:56:22.327Z,32.20
2023-02-23T10:58:51.560Z,35.47
2023-02-23T11:02:00.340Z,33.60
2023-02-23T11:04:34.865Z,29.17
2023-02-23T11:07:23.224Z,30.63
2023-02-23T11:09:51.609Z,29.20
2023-02-23T11:12:25.501Z,28.83
2023-02-23T11:14:54.626Z,30.13
2023-02-23T11:17:32.917Z,27.67
2023-02-23T11:20:19.747Z,25.70
2023-02-23T11:22:46.888Z,28.20
2023-02-23T11:25:24.918Z,33.10
2023-02-23T11:27:53.105Z,30.57
2023-02-23T11:30:24.401Z,30.83
2023-02-23T11:33:09.402Z,28.83
2023-02-23T11:35:37.916Z,26.93
2023-02-23T11:38:26.611Z,23.40
2023-02-23T11:41:18.491Z,20.67
2023-02-23T11:43:50.110Z,21.73
2023-02-23T11:46:19.067Z,19.87
2023-02-23T11:49:00.395Z,18.50
2023-02-23T11:51:31.195Z,21.33
2023-02-23T11:53:58.894Z,19.87
2023-02-23T11:56:26.737Z,19.83
2023-02-23T11:59:01.588Z,17.73
2023-02-23T12:01:46.970Z,17.20
2023-02-23T12:04:29.503Z,16.63
2023-02-23T12:07:27.083Z,18.40
2023-02-23T12:10:03.138Z,21.03
2023-02-23T12:12:32.149Z,21.93
2023-02-23T12:15:16.001Z,21.80
2023-02-23T12:17:53.322Z,20.33
2023-02-23T12:20:32.652Z,20.07
2023-02-23T12:23:12.433Z,19.20
2023-02-23T12:25:50.855Z,18.90
2023-02-23T12:28:27.933Z,19.53
2023-02-23T12:31:03.706Z,21.67
2023-02-23T12:33:50.555Z,21.93
2023-02-23T12:36:31.739Z,22.33
2023-02-23T12:39:04.893Z,18.60
2023-02-23T12:41:43.199Z,19.57
2023-02-23T12:44:29.419Z,18.53
2023-02-23T12:47:00.677Z,18.03
2023-02-23T12:49:37.115Z,17.03
2023-02-23T12:52:13.547Z,14.97
2023-02-23T12:54:40.934Z,16.97
2023-02-23T12:57:16.491Z,17.73
2023-02-23T13:00:09.973Z,15.97
2023-02-23T13:02:45.489Z,12.87
2023-02-23T13:05:31.272Z,14.93
2023-02-23T13:08:13.986Z,15.47
2023-02-23T13:10:55.721Z,13.77
2023-02-23T13:13:28.215Z,12.73
2023-02-23T13:16:16.727Z,15.70
2023-02-23T13:19:10.020Z,12.97
2023-02-23T13:21:42.294Z,11.67
2023-02-23T13:24:40.134Z,13.03
2023-02-23T13:27:23.356Z,13.67
2023-02-23T13:29:55.691Z,16.37
2023-02-23T13:32:29.380Z,14.30
2023-02-23T13:35:08.257Z,15.63
2023-02-23T13:37:45.477Z,12.47
2023-02-23T13:40:28.299Z,13.30
2023-02-23T13:43:07.696Z,11.47
2023-02-23T13:45:53.320Z,11.20
2023-02-23T13:48:32.072Z,11.70
2023-02-23T13:51:32.371Z,10.47
2023-02-23T13:54:22.905Z,13.50
2023-02-23T13:56:56.281Z,13.33
2023-02-23T13:59:33.295Z,10.07
2023-02-23T14:02:06.425Z,11.27
2023-02-23T14:04:39.806Z,12.53
2023-02-23T14:07:09.142Z,13.93
2023-02-23T14:09:41.335Z,12.30
2023-02-23T14:12:07.734Z,14.07
2023-02-23T14:14:34.116Z,12.37
2023-02-23T14:17:15.883Z,14.43
2023-02-23T14:20:13.366Z,13.43
2023-02-23T14:23:33.953Z,12.97
2023-02-23T14:26:32.773Z,11.93
2023-02-23T14:29:31.164Z,12.67
2023-02-23T14:32:11.529Z,11.50
2023-02-23T14:35:01.249Z,13.97
2023-02-23T14:37:41.068Z,13.60
2023-02-23T14:40:21.042Z,13.03
2023-02-23T14:42:52.244Z,12.20
2023-02-23T14:45:28.762Z,11.37
2023-02-23T14:48:02.910Z,14.60
2023-02-23T14:50:35.615Z,10.90
2023-02-23T14:53:04.716Z,12.37
2023-02-23T14:55:36.457Z,11.80
2023-02-23T14:58:04.441Z,10.20
2023-02-23T15:00:33.535Z,13.77
2023-02-23T15:03:05.969Z,12.70
2023-02-23T15:05:36.884Z,14.40
2023-02-23T15:08:07.810Z,10.37
2023-02-23T15:10:36.145Z,11.17
2023-02-23T15:13:29.291Z,13.83
2023-02-23T15:15:58.789Z,11.67
2023-02-23T15:19:23.302Z,13.27
2023-02-23T15:21:58.242Z,10.27
2023-02-23T15:24:33.034Z,11.60
2023-02-23T15:26:59.803Z,11.67
2023-02-23T15:29:32.408Z,12.57
2023-02-23T15:32:15.142Z,8.93
2023-02-23T15:34:41.973Z,11.50
2023-02-23T15:37:20.141Z,7.43
2023-02-23T15:39:53.297Z,9.90
2023-02-23T15:42:24.910Z,10.63
2023-02-23T15:45:01.723Z,9.43
2023-02-23T15:47:37.205Z,7.63
2023-02-23T15:50:36.580Z,9.03
2023-02-23T15:53:13.587Z,8.77
2023-02-23T15:55:43.624Z,10.70
2023-02-23T15:58:28.510Z,8.07
2023-02-23T16:01:09.040Z,8.40
2023-02-23T16:03:38.368Z,9.53
2023-02-23T16:06:07.970Z,7.27
2023-02-23T16:08:36.739Z,8.17
2023-02-23T16:11:14.347Z,7.73
2023-02-23T16:13:45.849Z,8.03
2023-02-23T16:16:19.418Z,7.70
2023-02-23T16:18:53.347Z,5.97
2023-02-23T16:21:24.221Z,6.60
2023-02-23T16:23:53.661Z,6.47
2023-02-23T16:26:26.679Z,6.40
2023-02-23T16:28:57.314Z,8.17
2023-02-23T16:31:42.104Z,6.37
2023-02-23T16:34:28.386Z,7.13
2023-02-23T16:37:00.561Z,8.03
2023-02-23T16:39:34.509Z,6.07
2023-02-23T16:42:01.054Z,8.63
2023-02-23T16:44:41.378Z,8.20
2023-02-23T16:47:09.204Z,5.27
2023-02-23T16:49:35.687Z,8.43
2023-02-23T16:52:12.653Z,7.67
2023-02-23T16:54:39.144Z,8.37
2023-02-23T16:57:18.108Z,10.00
2023-02-23T16:59:44.620Z,9.40
2023-02-23T17:02:13.765Z,6.80
2023-02-23T17:04:46.187Z,5.93
2023-02-23T17:07:12.689Z,6.83
2023-02-23T17:09:39.135Z,6.80
2023-02-23T17:12:05.952Z,5.60
2023-02-23T17:14:33.068Z,6.33
2023-02-23T17:17:00.254Z,6.83
2023-02-23T17:19:26.805Z,7.40
2023-02-23T17:21:53.275Z,10.13
2023-02-23T17:24:19.784Z,6.73
2023-02-23T17:26:46.345Z,8.27
2023-02-23T17:29:12.797Z,12.30
2023-02-23T17:31:39.648Z,8.07
2023-02-23T17:34:06.602Z,9.80
2023-02-23T17:36:33.119Z,9.13
2023-02-23T17:38:59.758Z,9.23
2023-02-23T17:41:27.184Z,8.60
2023-02-23T17:43:53.930Z,8.23
2023-02-23T17:46:20.729Z,6.70
2023-02-23T17:48:47.258Z,8.27
2023-02-23T17:51:16.672Z,8.23
2023-02-23T17:53:43.309Z,9.37
2023-02-23T17:56:10.587Z,7.80
2023-02-23T17:58:37.890Z,9.80
2023-02-23T18:01:06.794Z,7.97
2023-02-23T18:03:35.725Z,13.47
2023-02-23T18:06:04.592Z,10.67
2023-02-23T18:08:31.258Z,9.93
2023-02-23T18:10:58.587Z,11.50
2023-02-23T18:13:27.130Z,11.83
2023-02-23T18:16:20.225Z,11.03
2023-02-23T18:18:48.720Z,10.33
2023-02-23T18:21:20.662Z,10.23
2023-02-23T18:23:47.893Z,12.33
2023-02-23T18:26:17.994Z,10.13
2023-02-23T18:28:46.106Z,11.93
2023-02-23T18:31:24.299Z,10.03
2023-02-23T18:33:54.602Z,13.40
2023-02-23T18:36:27.848Z,9.97
2023-02-23T18:38:55.877Z,7.90
2023-02-23T18:41:22.758Z,8.60
2023-02-23T18:43:49.609Z,8.57
2023-02-23T18:46:16.858Z,7.80
2023-02-23T18:48:43.886Z,11.20
2023-02-23T18:51:14.218Z,10.60
2023-02-23T18:53:41.265Z,13.80
2023-02-23T18:56:28.890Z,11.53
2023-02-23T18:59:01.446Z,14.30
2023-02-23T19:01:30.417Z,15.03
2023-02-23T19:03:59.209Z,12.77
2023-02-23T19:06:26.770Z,13.53
2023-02-23T19:08:55.337Z,13.97
2023-02-23T19:11:24.407Z,14.47
2023-02-23T19:13:56.082Z,13.53
2023-02-23T19:16:23.893Z,15.27
2023-02-23T19:18:50.520Z,16.40
2023-02-23T19:21:22.653Z,18.60
2023-02-23T19:23:51.078Z,20.70
2023-02-23T19:26:18.530Z,18.03
2023-02-23T19:28:46.142Z,19.80
2023-02-23T19:31:20.571Z,20.43
2023-02-23T19:33:49.580Z,20.93
2023-02-23T19:36:18.631Z,17.27
2023-02-23T19:38:45.591Z,19.37
2023-02-23T19:41:20.682Z,21.30
2023-02-23T19:43:47.885Z,22.53
2023-02-23T19:46:17.180Z,21.43
2023-02-23T19:48:48.447Z,22.83
2023-02-23T19:51:14.918Z,25.70
2023-02-23T19:53:41.409Z,22.37
2023-02-23T19:56:11.898Z,24.60
2023-02-23T19:58:38.776Z,27.10
2023-02-23T20:01:09.554Z,25.40
2023-02-23T20:03:39.537Z,23.73
2023-02-23T20:06:06.840Z,26.37
2023-02-23T20:08:33.680Z,26.20
2023-02-23T20:11:00.341Z,24.80
2023-02-23T20:13:27.102Z,25.67
2023-02-23T20:16:04.676Z,24.43
2023-02-23T20:18:33.450Z,24.20
2023-02-23T20:20:59.905Z,25.03
2023-02-23T20:23:26.367Z,24.07
2023-02-23T20:25:52.810Z,20.80
2023-02-23T20:28:19.327Z,23.90
2023-02-23T20:30:47.333Z,27.53
2023-02-23T20:33:15.388Z,22.37
2023-02-23T20:35:42.365Z,23.97
2023-02-23T20:38:09.931Z,23.97
2023-02-23T20:40:36.695Z,23.37
2023-02-23T20:43:03.287Z,24.50
2023-02-23T20:45:29.757Z,22.93
2023-02-23T20:47:56.416Z,24.87
2023-02-23T20:50:25.574Z,26.03
2023-02-23T20:52:52.029Z,22.67
2023-02-23T20:55:18.847Z,24.47
2023-02-23T20:57:47.292Z,24.17
2023-02-23T21:00:23.615Z,23.17
2023-02-23T21:02:55.464Z,23.47
2023-02-23T21:05:24.219Z,23.57
2023-02-23T21:07:50.751Z,23.07
2023-02-23T21:10:17.997Z,24.30
2023-02-23T21:12:44.458Z,22.80
2023-02-23T21:15:11.264Z,23.23
2023-02-23T21:17:38.501Z,23.77
2023-02-23T21:20:11.196Z,22.57
2023-02-23T21:22:39.169Z,25.03
2023-02-23T21:25:08.275Z,23.37
2023-02-23T21:27:34.725Z,24.80
2023-02-23T21:30:01.421Z,25.33
2023-02-23T21:32:30.974Z,23.63
2023-02-23T21:34:58.465Z,23.67
2023-02-23T21:37:24.962Z,24.33
2023-02-23T21:39:51.495Z,24.43
2023-02-23T21:42:22.992Z,25.90
2023-02-23T21:44:50.352Z,23.03
2023-02-23T21:47:16.845Z,23.70
2023-02-23T21:49:48.985Z,22.37
2023-02-23T21:52:16.766Z,24.30
2023-02-23T21:54:47.983Z,24.40
2023-02-23T21:57:17.430Z,23.03
2023-02-23T21:59:44.039Z,22.90
2023-02-23T22:02:11.701Z,25.27
2023-02-23T22:04:39.423Z,26.50
2023-02-23T22:07:08.073Z,26.00
2023-02-23T22:09:35.324Z,25.43
2023-02-23T22:12:01.809Z,25.47
2023-02-23T22:14:28.273Z,26.93
2023-02-23T22:16:54.742Z,26.90
2023-02-23T22:19:21.531Z,30.47
2023-02-23T22:21:48.387Z,26.13
2023-02-23T22:24:15.501Z,26.90
2023-02-23T22:26:54.506Z,27.23
2023-02-23T22:29:25.700Z,27.20
2023-02-23T22:31:52.392Z,33.00
2023-02-23T22:34:19.031Z,27.50
2023-02-23T22:36:45.682Z,28.30
2023-02-23T22:39:13.988Z,31.17
2023-02-23T22:41:43.383Z,28.03
2023-02-23T22:44:16.730Z,31.27
2023-02-23T22:46:46.535Z,32.10
2023-02-23T22:49:15.668Z,33.67
2023-02-23T22:51:43.782Z,34.40
2023-02-23T22:54:11.621Z,33.07
2023-02-23T22:56:38.215Z,36.07
2023-02-23T22:59:06.176Z,38.10
2023-02-23T23:01:33.848Z,36.37
2023-02-23T23:04:00.327Z,39.37
2023-02-23T23:06:26.843Z,42.77
2023-02-23T23:08:56.286Z,43.13
2023-02-23T23:11:25.893Z,44.93
2023-02-23T23:14:01.819Z,49.00
2023-02-23T23:16:34.380Z,51.20
2023-02-23T23:19:03.533Z,59.40
2023-02-23T23:21:32.860Z,55.53
2023-02-23T23:24:01.473Z,56.23
2023-02-23T23:26:28.911Z,57.23
2023-02-23T23:29:00.619Z,57.83
2023-02-23T23:31:29.789Z,53.80
2023-02-23T23:34:00.321Z,58.70
2023-02-23T23:36:32.374Z,61.13
2023-02-23T23:38:59.234Z,55.53
2023-02-23T23:41:27.627Z,59.30
2023-02-23T23:43:57.121Z,58.47
2023-02-23T23:46:29.432Z,63.20
2023-02-23T23:48:59.715Z,60.90
2023-02-23T23:51:32.757Z,62.23
2023-02-23T23:54:00.889Z,58.83
2023-02-23T23:56:34.649Z,55.87
2023-02-23T23:59:01.471Z,53.77
